createdAt,value
2022-10-30T00:01:43.868Z,98945.00
2022-10-30T00:04:12.052Z,98937.00
2022-10-30T00:06:40.137Z,98943.00
2022-10-30T00:09:08.248Z,98939.00
2022-10-30T00:11:36.330Z,98938.00
2022-10-30T00:14:04.473Z,98942.00
2022-10-30T00:16:33.965Z,98952.00
2022-10-30T00:19:02.361Z,98948.00
2022-10-30T00:21:30.500Z,98940.00
2022-10-30T00:23:58.587Z,98946.00
2022-10-30T00:26:28.078Z,98947.00
2022-10-30T00:28:57.393Z,98941.00
2022-10-30T00:31:34.350Z,98939.00
2022-10-30T00:34:11.946Z,98929.00
2022-10-30T00:36:47.647Z,98939.00
2022-10-30T00:39:19.661Z,98937.00
2022-10-30T00:42:00.738Z,98945.00
2022-10-30T00:44:47.702Z,98942.00
2022-10-30T00:47:29.649Z,98944.00
2022-10-30T00:50:16.292Z,98935.00
2022-10-30T00:52:52.724Z,98945.00
2022-10-30T00:55:32.112Z,98935.00
2022-10-30T00:58:13.502Z,98931.00
2022-10-30T01:01:07.902Z,98933.00
2022-10-30T01:03:45.942Z,98922.00
2022-10-30T01:06:25.586Z,98922.00
2022-10-30T01:08:59.987Z,98921.00
2022-10-30T01:11:35.707Z,98927.00
2022-10-30T01:14:14.992Z,98932.00
2022-10-30T01:17:04.875Z,98927.00
2022-10-30T01:19:45.848Z,98921.00
2022-10-30T01:22:39.322Z,98929.00
2022-10-30T01:25:21.418Z,98928.00
2022-10-30T01:28:08.382Z,98924.00
2022-10-30T01:31:04.154Z,98924.00
2022-10-30T01:33:40.676Z,98919.00
2022-10-30T01:36:21.801Z,98906.00
2022-10-30T01:39:03.236Z,98913.00
2022-10-30T01:55:36.694Z,98909.00
2022-10-30T01:58:08.311Z,98900.00
2022-10-30T02:00:36.471Z,98900.00
2022-10-30T02:03:05.400Z,98898.00
2022-10-30T02:05:34.859Z,98897.00
2022-10-30T02:08:03.046Z,98890.00
2022-10-30T02:10:32.875Z,98905.00
2022-10-30T02:13:00.975Z,98901.00
2022-10-30T02:15:29.077Z,98907.00
2022-10-30T02:17:57.487Z,98898.00
2022-10-30T02:20:27.130Z,98898.00
2022-10-30T02:22:58.977Z,98897.00
2022-10-30T02:25:27.785Z,98895.00
2022-10-30T02:27:55.938Z,98900.00
2022-10-30T02:30:24.047Z,98888.00
2022-10-30T02:32:52.147Z,98894.00
2022-10-30T02:35:20.284Z,98894.00
2022-10-30T02:37:50.345Z,98901.00
2022-10-30T02:40:18.523Z,98881.00
2022-10-30T02:42:46.627Z,98888.00
2022-10-30T02:45:14.879Z,98887.00
2022-10-30T02:47:42.964Z,98880.00
2022-10-30T02:50:11.821Z,98876.00
2022-10-30T02:52:39.958Z,98875.00
2022-10-30T02:55:10.020Z,98885.00
2022-10-30T02:57:38.115Z,98885.00
2022-10-30T03:00:07.400Z,98885.00
2022-10-30T03:02:35.492Z,98880.00
2022-10-30T03:05:03.585Z,98895.00
2022-10-30T03:07:31.783Z,98886.00
2022-10-30T03:10:02.679Z,98883.00
2022-10-30T03:12:32.163Z,98879.00
2022-10-30T03:15:00.261Z,98885.00
2022-10-30T03:17:28.476Z,98880.00
2022-10-30T03:19:57.049Z,98880.00
2022-10-30T03:22:25.274Z,98888.00
2022-10-30T03:24:53.489Z,98891.00
2022-10-30T03:27:22.696Z,98881.00
2022-10-30T03:29:52.194Z,98877.00
2022-10-30T03:32:20.754Z,98883.00
2022-10-30T03:34:48.879Z,98880.00
2022-10-30T03:37:16.984Z,98881.00
2022-10-30T03:39:45.093Z,98897.00
2022-10-30T03:42:13.229Z,98891.00
2022-10-30T03:44:41.318Z,98889.00
2022-10-30T03:49:39.819Z,98887.00
2022-10-30T03:52:07.944Z,98901.00
2022-10-30T03:54:36.025Z,98896.00
2022-10-30T03:57:04.201Z,98904.00
2022-10-30T03:59:32.286Z,98895.00
2022-10-30T04:02:00.541Z,98900.00
2022-10-30T04:04:30.347Z,98905.00
2022-10-30T04:06:58.468Z,98909.00
2022-10-30T04:09:26.575Z,98904.00
2022-10-30T04:12:03.301Z,98904.00
2022-10-30T04:14:35.779Z,98898.00
2022-10-30T04:17:13.343Z,98902.00
2022-10-30T04:19:58.597Z,98891.00
2022-10-30T04:22:36.346Z,98895.00
2022-10-30T04:25:17.680Z,98886.00
2022-10-30T04:27:59.411Z,98896.00
2022-10-30T04:30:40.906Z,98885.00
2022-10-30T04:33:18.656Z,98878.00
2022-10-30T04:35:58.941Z,98887.00
2022-10-30T04:38:37.635Z,98884.00
2022-10-30T04:41:15.899Z,98887.00
2022-10-30T04:43:53.902Z,98887.00
2022-10-30T04:46:33.392Z,98877.00
2022-10-30T04:49:07.663Z,98894.00
2022-10-30T04:51:47.866Z,98889.00
2022-10-30T04:54:25.408Z,98890.00
2022-10-30T04:57:02.493Z,98885.00
2022-10-30T04:59:54.527Z,98895.00
2022-10-30T05:02:32.845Z,98885.00
2022-10-30T05:05:13.208Z,98896.00
2022-10-30T05:07:59.614Z,98901.00
2022-10-30T05:10:34.788Z,98898.00
2022-10-30T05:13:11.103Z,98895.00
2022-10-30T05:15:51.539Z,98889.00
2022-10-30T05:18:25.989Z,98877.00
2022-10-30T05:21:11.006Z,98875.00
2022-10-30T05:23:47.117Z,98876.00
2022-10-30T05:26:25.582Z,98876.00
2022-10-30T05:29:01.028Z,98883.00
2022-10-30T05:31:39.185Z,98882.00
2022-10-30T05:34:16.937Z,98882.00
2022-10-30T05:36:58.440Z,98885.00
2022-10-30T05:39:32.944Z,98887.00
2022-10-30T05:42:16.685Z,98884.00
2022-10-30T05:45:01.038Z,98889.00
2022-10-30T05:47:33.532Z,98884.00
2022-10-30T05:50:19.557Z,98898.00
2022-10-30T05:53:06.213Z,98893.00
2022-10-30T05:55:52.555Z,98889.00
2022-10-30T05:58:25.345Z,98897.00
2022-10-30T06:00:57.367Z,98892.00
2022-10-30T06:03:39.360Z,98899.00
2022-10-30T06:06:11.987Z,98904.00
2022-10-30T06:08:52.087Z,98900.00
2022-10-30T06:11:28.714Z,98893.00
2022-10-30T06:14:14.451Z,98913.00
2022-10-30T06:16:49.588Z,98901.00
2022-10-30T06:19:28.771Z,98903.00
2022-10-30T06:22:05.853Z,98911.00
2022-10-30T07:02:49.403Z,98910.00
2022-10-30T07:06:06.371Z,98915.00
2022-10-30T07:20:45.893Z,98906.00
2022-10-30T07:32:17.304Z,98923.00
2022-10-30T07:48:07.742Z,98932.00
2022-10-30T07:51:29.300Z,98933.00
2022-10-30T07:54:48.026Z,98928.00
2022-10-30T07:58:02.400Z,98937.00
2022-10-30T08:01:30.718Z,98936.00
2022-10-30T08:04:54.702Z,98951.00
2022-10-30T08:08:11.977Z,98943.00
2022-10-30T08:11:21.074Z,98956.00
2022-10-30T08:14:36.751Z,98948.00
2022-10-30T08:17:38.179Z,98947.00
2022-10-30T08:21:04.852Z,98941.00
2022-10-30T08:24:19.940Z,98947.00
2022-10-30T08:27:57.161Z,98940.00
2022-10-30T08:31:04.595Z,98940.00
2022-10-30T08:34:16.208Z,98943.00
2022-10-30T10:09:19.215Z,98937.00
2022-10-30T10:12:32.923Z,98929.00
2022-10-30T10:15:49.858Z,98929.00
2022-10-30T10:19:17.972Z,98932.00
2022-10-30T10:25:28.560Z,98926.00
2022-10-30T10:34:35.677Z,98920.00
2022-10-30T10:37:08.098Z,98925.00
2022-10-30T10:39:47.659Z,98914.00
2022-10-30T10:42:21.464Z,98934.00
2022-10-30T10:44:57.518Z,98932.00
2022-10-30T10:47:35.634Z,98911.00
2022-10-30T10:50:16.832Z,98917.00
2022-10-30T10:52:48.864Z,98912.00
2022-10-30T10:55:18.239Z,98914.00
2022-10-30T10:57:46.415Z,98909.00
2022-10-30T11:00:18.525Z,98907.00
2022-10-30T11:02:48.758Z,98903.00
2022-10-30T11:05:22.553Z,98908.00
2022-10-30T11:07:52.122Z,98900.00
2022-10-30T11:10:21.013Z,98899.00
2022-10-30T11:12:49.285Z,98892.00
2022-10-30T11:15:21.446Z,98890.00
2022-10-30T11:17:53.813Z,98902.00
2022-10-30T11:20:24.626Z,98891.00
2022-10-30T11:22:54.178Z,98887.00
2022-10-30T11:25:26.823Z,98891.00
2022-10-30T11:27:59.084Z,98888.00
2022-10-30T11:30:28.780Z,98889.00
2022-10-30T11:32:57.360Z,98884.00
2022-10-30T11:35:25.694Z,98882.00
2022-10-30T11:38:14.481Z,98875.00
2022-10-30T11:40:47.650Z,98879.00
2022-10-30T11:43:16.276Z,98877.00
2022-10-30T11:45:44.398Z,98877.00
2022-10-30T11:48:16.295Z,98866.00
2022-10-30T11:50:46.909Z,98867.00
2022-10-30T11:53:21.065Z,98875.00
2022-10-30T11:55:49.450Z,98872.00
2022-10-30T11:58:24.125Z,98875.00
2022-10-30T12:01:00.376Z,98871.00
2022-10-30T12:03:29.896Z,98870.00
2022-10-30T12:06:09.003Z,98873.00
2022-10-30T12:08:38.979Z,98863.00
2022-10-30T12:11:07.273Z,98872.00
2022-10-30T12:13:39.072Z,98875.00
2022-10-30T12:16:14.587Z,98866.00
2022-10-30T12:18:42.868Z,98863.00
2022-10-30T12:21:12.124Z,98862.00
2022-10-30T12:23:41.662Z,98862.00
2022-10-30T12:26:11.049Z,98860.00
2022-10-30T12:28:39.224Z,98858.00
2022-10-30T12:31:10.573Z,98858.00
2022-10-30T12:33:39.938Z,98854.00
2022-10-30T12:36:11.194Z,98861.00
2022-10-30T12:38:41.462Z,98854.00
2022-10-30T12:41:14.959Z,98850.00
2022-10-30T12:43:43.158Z,98853.00
2022-10-30T12:46:28.545Z,98849.00
2022-10-30T12:48:59.245Z,98854.00
2022-10-30T12:51:30.932Z,98848.00
2022-10-30T12:54:01.909Z,98848.00
2022-10-30T12:56:33.082Z,98843.00
2022-10-30T12:59:10.528Z,98845.00
2022-10-30T13:01:42.702Z,98839.00
2022-10-30T13:04:12.019Z,98843.00
2022-10-30T13:06:43.215Z,98840.00
2022-10-30T13:09:15.816Z,98838.00
2022-10-30T13:11:46.950Z,98840.00
2022-10-30T13:14:17.238Z,98828.00
2022-10-30T13:16:45.887Z,98830.00
2022-10-30T13:19:14.693Z,98831.00
2022-10-30T13:21:45.308Z,98819.00
2022-10-30T13:24:16.882Z,98827.00
2022-10-30T13:26:47.334Z,98828.00
2022-10-30T13:29:19.821Z,98826.00
2022-10-30T13:31:59.742Z,98829.00
2022-10-30T13:34:32.287Z,98819.00
2022-10-30T13:37:02.992Z,98818.00
2022-10-30T13:39:34.466Z,98812.00
2022-10-30T13:42:11.221Z,98821.00
2022-10-30T13:44:45.365Z,98826.00
2022-10-30T13:47:19.433Z,98816.00
2022-10-30T13:49:55.636Z,98816.00
2022-10-30T13:52:23.802Z,98813.00
2022-10-30T13:54:56.830Z,98826.00
2022-10-30T13:57:29.068Z,98814.00
2022-10-30T14:00:01.344Z,98820.00
2022-10-30T14:02:37.122Z,98815.00
2022-10-30T14:05:08.349Z,98821.00
2022-10-30T14:07:38.531Z,98819.00
2022-10-30T14:10:09.766Z,98820.00
2022-10-30T14:12:48.097Z,98818.00
2022-10-30T14:15:27.385Z,98811.00
2022-10-30T14:18:30.199Z,98820.00
2022-10-30T14:20:58.520Z,98810.00
2022-10-30T14:23:28.762Z,98821.00
2022-10-30T14:26:22.326Z,98816.00
2022-10-30T14:28:50.662Z,98820.00
2022-10-30T14:31:19.398Z,98815.00
2022-10-30T14:33:49.428Z,98819.00
2022-10-30T14:36:22.810Z,98814.00
2022-10-30T14:38:55.324Z,98822.00
2022-10-30T14:41:38.611Z,98825.00
2022-10-30T14:44:28.641Z,98817.00
2022-10-30T14:47:06.475Z,98806.00
2022-10-30T14:49:44.125Z,98812.00
2022-10-30T14:52:18.607Z,98806.00
2022-10-30T14:54:49.004Z,98805.00
2022-10-30T14:57:23.310Z,98805.00
2022-10-30T14:59:54.025Z,98813.00
2022-10-30T15:02:36.667Z,98815.00
2022-10-30T15:05:24.338Z,98811.00
2022-10-30T15:07:53.505Z,98820.00
2022-10-30T15:10:24.066Z,98810.00
2022-10-30T15:13:02.376Z,98808.00
2022-10-30T15:15:30.804Z,98817.00
2022-10-30T15:18:00.776Z,98807.00
2022-10-30T15:20:34.175Z,98811.00
2022-10-30T15:23:04.018Z,98805.00
2022-10-30T15:25:35.841Z,98814.00
2022-10-30T15:28:05.778Z,98811.00
2022-10-30T15:30:33.862Z,98818.00
2022-10-30T15:33:02.234Z,98817.00
2022-10-30T15:35:31.220Z,98816.00
2022-10-30T15:38:00.475Z,98815.00
2022-10-30T15:40:29.412Z,98814.00
2022-10-30T15:42:59.294Z,98811.00
2022-10-30T15:45:32.116Z,98830.00
2022-10-30T15:48:02.914Z,98821.00
2022-10-30T15:50:32.129Z,98823.00
2022-10-30T15:53:00.319Z,98818.00
2022-10-30T15:55:29.795Z,98814.00
2022-10-30T15:58:04.830Z,98822.00
2022-10-30T16:00:36.087Z,98822.00
2022-10-30T16:03:06.948Z,98827.00
2022-10-30T16:05:35.698Z,98833.00
2022-10-30T16:08:04.722Z,98829.00
2022-10-30T16:10:34.423Z,98834.00
2022-10-30T16:13:03.009Z,98830.00
2022-10-30T16:15:32.331Z,98828.00
2022-10-30T16:18:07.435Z,98834.00
2022-10-30T16:20:35.651Z,98829.00
2022-10-30T16:23:03.792Z,98837.00
2022-10-30T16:25:34.112Z,98830.00
2022-10-30T16:28:02.576Z,98843.00
2022-10-30T16:30:34.076Z,98835.00
2022-10-30T16:33:02.402Z,98831.00
2022-10-30T16:35:32.056Z,98842.00
2022-10-30T16:38:02.675Z,98837.00
2022-10-30T16:40:30.853Z,98837.00
2022-10-30T16:43:01.354Z,98840.00
2022-10-30T16:45:50.638Z,98846.00
2022-10-30T16:48:28.159Z,98849.00
2022-10-30T16:51:03.659Z,98844.00
2022-10-30T16:53:33.143Z,98844.00
2022-10-30T16:56:03.786Z,98854.00
2022-10-30T16:58:33.040Z,98848.00
2022-10-30T17:01:04.276Z,98852.00
2022-10-30T17:03:35.252Z,98858.00
2022-10-30T17:06:06.313Z,98863.00
2022-10-30T17:08:37.063Z,98853.00
2022-10-30T17:11:06.183Z,98852.00
2022-10-30T17:13:36.347Z,98855.00
2022-10-30T17:16:23.425Z,98854.00
2022-10-30T17:18:53.475Z,98855.00
2022-10-30T17:21:23.980Z,98862.00
2022-10-30T17:23:52.991Z,98868.00
2022-10-30T17:26:21.412Z,98869.00
2022-10-30T17:28:50.148Z,98872.00
2022-10-30T17:31:23.477Z,98869.00
2022-10-30T17:34:06.356Z,98879.00
2022-10-30T17:36:36.053Z,98867.00
2022-10-30T17:39:04.298Z,98871.00
2022-10-30T17:41:32.751Z,98870.00
2022-10-30T17:44:01.543Z,98886.00
2022-10-30T17:46:29.996Z,98869.00
2022-10-30T17:48:59.054Z,98869.00
2022-10-30T17:51:29.297Z,98872.00
2022-10-30T17:53:58.947Z,98879.00
2022-10-30T17:56:29.106Z,98875.00
2022-10-30T17:58:57.756Z,98882.00
2022-10-30T18:01:27.147Z,98887.00
2022-10-30T18:03:56.201Z,98876.00
2022-10-30T18:06:25.874Z,98880.00
2022-10-30T18:08:55.772Z,98887.00
2022-10-30T18:11:27.147Z,98889.00
2022-10-30T18:13:56.939Z,98892.00
2022-10-30T18:16:25.161Z,98888.00
2022-10-30T18:18:54.406Z,98890.00
2022-10-30T18:21:23.783Z,98879.00
2022-10-30T18:23:53.528Z,98886.00
2022-10-30T18:26:23.263Z,98886.00
2022-10-30T18:28:52.932Z,98891.00
2022-10-30T18:31:22.009Z,98882.00
2022-10-30T18:33:50.248Z,98884.00
2022-10-30T18:36:19.287Z,98890.00
2022-10-30T18:38:47.722Z,98885.00
2022-10-30T18:41:16.772Z,98892.00
2022-10-30T18:43:47.003Z,98892.00
2022-10-30T18:46:17.430Z,98887.00
2022-10-30T18:48:45.815Z,98885.00
2022-10-30T18:51:18.235Z,98892.00
2022-10-30T18:53:52.132Z,98885.00
2022-10-30T18:56:21.270Z,98897.00
2022-10-30T18:58:49.826Z,98892.00
2022-10-30T19:01:20.060Z,98899.00
2022-10-30T19:03:48.584Z,98897.00
2022-10-30T19:06:18.607Z,98890.00
2022-10-30T19:08:47.001Z,98885.00
2022-10-30T19:11:18.793Z,98896.00
2022-10-30T19:13:50.505Z,98900.00
2022-10-30T19:16:21.107Z,98896.00
2022-10-30T19:18:50.945Z,98896.00
2022-10-30T19:21:20.414Z,98899.00
2022-10-30T19:23:48.665Z,98904.00
2022-10-30T19:26:17.598Z,98898.00
2022-10-30T19:28:46.202Z,98903.00
2022-10-30T19:31:15.406Z,98901.00
2022-10-30T19:33:45.112Z,98898.00
2022-10-30T19:36:27.061Z,98898.00
2022-10-30T19:38:56.041Z,98899.00
2022-10-30T19:41:25.090Z,98911.00
2022-10-30T19:43:53.845Z,98902.00
2022-10-30T19:46:22.126Z,98909.00
2022-10-30T19:48:59.942Z,98907.00
2022-10-30T19:51:28.959Z,98911.00
2022-10-30T19:53:57.660Z,98911.00
2022-10-30T19:56:26.123Z,98905.00
2022-10-30T19:58:54.306Z,98913.00
2022-10-30T20:01:22.642Z,98908.00
2022-10-30T20:03:52.382Z,98914.00
2022-10-30T20:06:21.470Z,98911.00
2022-10-30T20:08:49.890Z,98908.00
2022-10-30T20:11:18.485Z,98913.00
2022-10-30T20:13:49.412Z,98918.00
2022-10-30T20:16:20.471Z,98922.00
2022-10-30T20:18:50.299Z,98922.00
2022-10-30T20:21:20.420Z,98903.00
2022-10-30T20:23:49.004Z,98913.00
2022-10-30T20:26:22.945Z,98933.00
2022-10-30T20:28:51.314Z,98922.00
2022-10-30T20:31:19.575Z,98922.00
2022-10-30T20:33:47.803Z,98924.00
2022-10-30T20:36:16.135Z,98928.00
2022-10-30T20:38:45.744Z,98939.00
2022-10-30T20:41:20.892Z,98939.00
2022-10-30T20:43:50.152Z,98940.00
2022-10-30T20:46:18.797Z,98935.00
2022-10-30T20:48:47.205Z,98936.00
2022-10-30T20:51:15.864Z,98940.00
2022-10-30T20:53:45.897Z,98947.00
2022-10-30T20:56:14.332Z,98946.00
2022-10-30T20:58:43.395Z,98950.00
2022-10-30T21:01:13.909Z,98943.00
2022-10-30T21:03:42.354Z,98954.00
2022-10-30T21:06:11.047Z,98943.00
2022-10-30T21:08:40.508Z,98954.00
2022-10-30T21:11:10.107Z,98958.00
2022-10-30T21:13:38.323Z,98952.00
2022-10-30T21:16:08.362Z,98946.00
2022-10-30T21:18:36.881Z,98949.00
2022-10-30T21:21:05.905Z,98958.00
2022-10-30T21:23:34.261Z,98960.00
2022-10-30T21:26:03.438Z,98961.00
2022-10-30T21:28:33.136Z,98954.00
2022-10-30T21:31:04.937Z,98953.00
2022-10-30T21:33:33.385Z,98961.00
2022-10-30T21:36:11.701Z,98963.00
2022-10-30T21:38:42.196Z,98949.00
2022-10-30T21:41:10.800Z,98952.00
2022-10-30T21:43:40.489Z,98956.00
2022-10-30T21:46:09.144Z,98955.00
2022-10-30T21:48:37.315Z,98954.00
2022-10-30T21:51:09.843Z,98964.00
2022-10-30T21:53:38.488Z,98950.00
2022-10-30T21:56:08.531Z,98959.00
2022-10-30T21:58:36.699Z,98960.00
2022-10-30T22:01:06.808Z,98963.00
2022-10-30T22:03:35.288Z,98954.00
2022-10-30T22:06:07.888Z,98956.00
2022-10-30T22:08:36.151Z,98949.00
2022-10-30T22:11:05.747Z,98959.00
2022-10-30T22:13:34.198Z,98960.00
2022-10-30T22:16:03.026Z,98956.00
2022-10-30T22:18:32.625Z,98960.00
2022-10-30T22:21:01.537Z,98951.00
2022-10-30T22:23:29.810Z,98939.00
2022-10-30T22:25:58.655Z,98948.00
2022-10-30T22:28:27.121Z,98949.00
2022-10-30T22:30:55.513Z,98949.00
2022-10-30T22:33:23.888Z,98951.00
2022-10-30T22:35:53.541Z,98957.00
2022-10-30T22:38:21.803Z,98952.00
2022-10-30T22:40:50.078Z,98947.00
2022-10-30T22:45:46.702Z,98951.00
2022-10-30T22:48:14.998Z,98953.00
2022-10-30T22:50:43.194Z,98952.00
2022-10-30T22:53:12.822Z,98964.00
2022-10-30T22:55:41.246Z,98957.00
2022-10-30T22:58:09.486Z,98957.00
2022-10-30T23:00:37.730Z,98947.00
2022-10-30T23:03:06.295Z,98964.00
2022-10-30T23:05:34.568Z,98960.00
2022-10-30T23:08:03.042Z,98953.00
2022-10-30T23:10:32.701Z,98959.00
2022-10-30T23:13:01.133Z,98966.00
2022-10-30T23:15:29.755Z,98955.00
2022-10-30T23:17:58.220Z,98962.00
2022-10-30T23:20:26.824Z,98963.00
2022-10-30T23:22:55.155Z,98972.00
2022-10-30T23:25:23.304Z,98959.00
2022-10-30T23:27:53.785Z,98964.00
2022-10-30T23:30:22.028Z,98960.00
2022-10-30T23:32:50.402Z,98957.00
2022-10-30T23:35:18.940Z,98943.00
2022-10-30T23:37:47.156Z,98965.00
2022-10-30T23:40:15.485Z,98967.00
2022-10-30T23:42:43.844Z,98975.00
2022-10-30T23:45:13.581Z,98971.00
2022-10-30T23:47:42.838Z,98973.00
2022-10-30T23:50:11.235Z,98977.00
2022-10-30T23:52:39.382Z,98973.00
2022-10-30T23:55:08.754Z,98977.00
2022-10-30T23:57:36.911Z,98978.00
